createdAt,value
2018-02-01T00:00:14.805Z,0
2018-02-01T00:00:55.349Z,0
2018-02-01T00:01:35.897Z,0
2018-02-01T00:02:16.436Z,0
2018-02-01T00:02:56.989Z,0
2018-02-01T00:03:37.555Z,0
2018-02-01T00:04:18.118Z,0
2018-02-01T00:04:58.655Z,0
2018-02-01T00:05:39.229Z,0
2018-02-01T00:06:19.813Z,0
2018-02-01T00:07:00.332Z,0
2018-02-01T00:07:40.875Z,0
2018-02-01T00:08:21.470Z,0
2018-02-01T00:09:01.997Z,0
2018-02-01T00:09:42.546Z,0
2018-02-01T00:10:23.061Z,0
2018-02-01T00:11:03.628Z,0
2018-02-01T00:11:44.208Z,0
2018-02-01T00:12:24.780Z,0
2018-02-01T00:13:05.361Z,0
2018-02-01T00:13:45.883Z,0
2018-02-01T00:14:26.438Z,0
2018-02-01T00:15:06.973Z,0
2018-02-01T00:15:47.511Z,0
2018-02-01T00:16:28.064Z,0
2018-02-01T00:17:08.597Z,0
2018-02-01T00:17:49.150Z,0
2018-02-01T00:18:29.685Z,0
2018-02-01T00:19:10.255Z,0
2018-02-01T00:19:50.791Z,0
2018-02-01T00:20:31.357Z,0
2018-02-01T00:21:11.892Z,0
2018-02-01T00:21:52.449Z,0
2018-02-01T00:22:32.995Z,0
2018-02-01T00:23:13.508Z,0
2018-02-01T00:23:54.052Z,0
2018-02-01T00:24:34.624Z,0
2018-02-01T00:25:15.188Z,0
2018-02-01T00:25:55.729Z,0
2018-02-01T00:26:36.284Z,0
2018-02-01T00:27:16.811Z,0
2018-02-01T00:27:57.354Z,0
2018-02-01T00:28:37.903Z,0
2018-02-01T00:29:18.438Z,0
2018-02-01T00:29:59.014Z,0
2018-02-01T00:30:39.564Z,0
2018-02-01T00:31:20.081Z,0
2018-02-01T00:32:00.637Z,0
2018-02-01T00:32:41.164Z,0
2018-02-01T00:33:21.715Z,0
2018-02-01T00:34:02.250Z,0
2018-02-01T00:34:42.767Z,0
2018-02-01T00:35:23.327Z,0
2018-02-01T00:36:03.872Z,0
2018-02-01T00:36:44.423Z,0
2018-02-01T00:37:24.997Z,0
2018-02-01T00:38:05.524Z,0
2018-02-01T00:38:46.079Z,0
2018-02-01T00:39:26.592Z,0
2018-02-01T00:40:07.158Z,0
2018-02-01T00:40:47.692Z,0
2018-02-01T00:41:28.266Z,0
2018-02-01T00:42:08.808Z,0
2018-02-01T00:42:49.379Z,0
2018-02-01T00:43:29.951Z,0
2018-02-01T00:44:10.475Z,0
2018-02-01T00:44:51.039Z,0
2018-02-01T00:45:31.602Z,0
2018-02-01T00:46:12.133Z,0
2018-02-01T00:46:52.695Z,0
2018-02-01T00:47:33.220Z,0
2018-02-01T00:48:13.788Z,0
2018-02-01T00:48:54.324Z,0
2018-02-01T00:49:34.875Z,0
2018-02-01T00:50:15.433Z,0
2018-02-01T00:50:55.990Z,0
2018-02-01T00:51:36.549Z,0
2018-02-01T00:52:17.067Z,0
2018-02-01T00:52:57.637Z,0
2018-02-01T00:53:38.134Z,0
2018-02-01T00:54:18.700Z,0
2018-02-01T00:54:59.244Z,0
2018-02-01T00:55:39.802Z,0
2018-02-01T00:56:20.357Z,0
2018-02-01T00:57:00.913Z,0
2018-02-01T00:57:41.426Z,0
2018-02-01T00:58:21.947Z,0
2018-02-01T00:59:02.519Z,0
2018-02-01T00:59:43.059Z,0
2018-02-01T01:00:23.610Z,0
2018-02-01T01:01:04.131Z,0
2018-02-01T01:01:44.717Z,0
2018-02-01T01:02:25.277Z,0
2018-02-01T01:03:05.810Z,0
2018-02-01T01:03:46.385Z,0
2018-02-01T01:04:26.916Z,0
2018-02-01T01:05:07.455Z,0
2018-02-01T01:05:48.010Z,0
2018-02-01T01:06:28.567Z,0
2018-02-01T01:07:09.098Z,0
2018-02-01T01:07:49.693Z,0
2018-02-01T01:08:30.226Z,0
2018-02-01T01:09:10.795Z,0
2018-02-01T01:09:51.329Z,0
2018-02-01T01:10:31.864Z,0
2018-02-01T01:11:12.452Z,0
2018-02-01T01:11:52.993Z,0
2018-02-01T01:12:33.574Z,0
2018-02-01T01:13:14.047Z,0
2018-02-01T01:13:54.581Z,0
2018-02-01T01:14:35.130Z,0
2018-02-01T01:15:15.688Z,0
2018-02-01T01:15:56.177Z,0
2018-02-01T01:16:36.770Z,0
2018-02-01T01:17:17.270Z,0
2018-02-01T01:17:57.851Z,0
2018-02-01T01:18:38.392Z,0
2018-02-01T01:19:18.906Z,0
2018-02-01T01:19:59.442Z,0
2018-02-01T01:20:39.991Z,0
2018-02-01T01:21:20.550Z,0
2018-02-01T01:22:01.129Z,0
2018-02-01T01:22:41.664Z,0
2018-02-01T01:23:22.216Z,0
2018-02-01T01:24:02.772Z,0
2018-02-01T01:24:43.325Z,0
2018-02-01T01:25:23.872Z,0
2018-02-01T01:26:04.423Z,0
2018-02-01T01:26:45.018Z,0
2018-02-01T01:27:25.529Z,0
2018-02-01T01:28:06.107Z,0
2018-02-01T01:28:46.700Z,0
2018-02-01T01:29:27.163Z,0
2018-02-01T01:30:07.685Z,0
2018-02-01T01:30:48.259Z,0
2018-02-01T01:31:29.642Z,0
2018-02-01T01:32:10.176Z,0
2018-02-01T01:32:50.759Z,0
2018-02-01T01:33:31.289Z,0
2018-02-01T01:34:11.813Z,0
2018-02-01T01:34:52.373Z,0
2018-02-01T01:35:32.959Z,0
2018-02-01T01:36:13.509Z,0
2018-02-01T01:36:54.047Z,0
2018-02-01T01:37:34.582Z,0
2018-02-01T01:38:15.144Z,0
2018-02-01T01:38:55.737Z,0
2018-02-01T01:39:36.290Z,0
2018-02-01T01:40:16.805Z,0
2018-02-01T01:40:57.326Z,0
2018-02-01T01:41:37.868Z,0
2018-02-01T01:42:18.459Z,0
2018-02-01T01:42:58.977Z,0
2018-02-01T01:43:39.531Z,0
2018-02-01T01:44:20.082Z,0
2018-02-01T01:45:00.591Z,0
2018-02-01T01:45:41.142Z,0
2018-02-01T01:46:21.674Z,0
2018-02-01T01:47:02.222Z,0
2018-02-01T01:47:42.725Z,0
2018-02-01T01:48:23.593Z,0
2018-02-01T01:49:04.128Z,0
2018-02-01T01:49:44.706Z,0
2018-02-01T01:50:25.304Z,0
2018-02-01T01:51:05.787Z,0
2018-02-01T01:51:46.340Z,0
2018-02-01T01:52:26.900Z,0
2018-02-01T01:53:07.408Z,0
2018-02-01T01:53:47.946Z,0
2018-02-01T01:54:28.514Z,0
2018-02-01T01:55:08.997Z,0
2018-02-01T01:55:49.514Z,0
2018-02-01T01:56:30.091Z,0
2018-02-01T01:57:10.617Z,0
2018-02-01T01:57:51.164Z,0
2018-02-01T01:58:31.700Z,0
2018-02-01T01:59:12.253Z,0
2018-02-01T01:59:52.969Z,0
2018-02-01T02:00:33.551Z,0
2018-02-01T02:01:14.068Z,0
2018-02-01T02:01:54.629Z,0
2018-02-01T02:02:35.178Z,0
2018-02-01T02:03:15.674Z,0
2018-02-01T02:03:56.245Z,0
2018-02-01T02:04:36.774Z,0
2018-02-01T02:05:17.308Z,0
2018-02-01T02:05:57.899Z,0
2018-02-01T02:06:38.415Z,0
2018-02-01T02:07:18.899Z,0
2018-02-01T02:07:59.453Z,0
2018-02-01T02:08:39.977Z,0
2018-02-01T02:09:20.531Z,0
2018-02-01T02:10:01.052Z,0
2018-02-01T02:10:41.632Z,0
2018-02-01T02:11:22.149Z,0
2018-02-01T02:12:02.679Z,0
2018-02-01T02:12:43.212Z,0
2018-02-01T02:13:23.767Z,0
2018-02-01T02:14:04.423Z,0
2018-02-01T02:14:44.951Z,0
2018-02-01T02:15:25.489Z,0
2018-02-01T02:16:06.028Z,0
2018-02-01T02:16:46.572Z,0
2018-02-01T02:17:27.132Z,0
2018-02-01T02:18:07.623Z,0
2018-02-01T02:18:48.133Z,0
2018-02-01T02:19:28.667Z,0
2018-02-01T02:20:09.209Z,0
2018-02-01T02:20:49.767Z,0
2018-02-01T02:21:30.320Z,0
2018-02-01T02:22:10.881Z,0
2018-02-01T02:22:51.438Z,0
2018-02-01T02:23:31.978Z,0
2018-02-01T02:24:12.516Z,0
2018-02-01T02:24:53.066Z,0
2018-02-01T02:25:33.621Z,0
2018-02-01T02:26:14.161Z,0
2018-02-01T02:26:54.714Z,0
2018-02-01T02:27:35.279Z,0
2018-02-01T02:28:15.840Z,0
2018-02-01T02:28:56.414Z,0
2018-02-01T02:29:36.937Z,0
2018-02-01T02:30:17.485Z,0
2018-02-01T02:30:58.028Z,0
2018-02-01T02:31:38.575Z,0
2018-02-01T02:32:19.100Z,0
2018-02-01T02:32:59.670Z,0
2018-02-01T02:33:40.227Z,0
2018-02-01T02:34:20.735Z,0
2018-02-01T02:35:01.320Z,0
2018-02-01T02:35:41.824Z,0
2018-02-01T02:36:22.387Z,0
2018-02-01T02:37:02.899Z,0
2018-02-01T02:37:43.421Z,0
2018-02-01T02:38:23.947Z,0
2018-02-01T02:39:04.492Z,0
2018-02-01T02:39:45.049Z,0
2018-02-01T02:40:25.614Z,0
2018-02-01T02:41:06.136Z,0
2018-02-01T02:41:46.697Z,0
2018-02-01T02:42:27.241Z,0
2018-02-01T02:43:07.805Z,0
2018-02-01T02:43:48.335Z,0
2018-02-01T02:44:28.861Z,0
2018-02-01T02:45:09.423Z,0
2018-02-01T02:45:49.980Z,0
2018-02-01T02:46:30.532Z,0
2018-02-01T02:47:11.124Z,0
2018-02-01T02:47:51.632Z,0
2018-02-01T02:48:32.189Z,0
2018-02-01T02:49:12.726Z,0
2018-02-01T02:49:53.311Z,0
2018-02-01T02:50:33.848Z,0
2018-02-01T02:51:14.351Z,0
2018-02-01T02:51:54.904Z,0
2018-02-01T02:52:35.455Z,0
2018-02-01T02:53:16.006Z,0
2018-02-01T02:53:56.523Z,0
2018-02-01T02:54:37.034Z,0
2018-02-01T02:55:17.587Z,0
2018-02-01T02:55:58.085Z,0
2018-02-01T02:56:38.637Z,0
2018-02-01T02:57:19.222Z,0
2018-02-01T02:57:59.756Z,0
2018-02-01T02:58:40.284Z,0
2018-02-01T02:59:20.860Z,0
2018-02-01T03:00:01.385Z,0
2018-02-01T03:00:41.891Z,0
2018-02-01T03:01:22.415Z,0
2018-02-01T03:02:02.969Z,0
2018-02-01T03:02:43.532Z,0
2018-02-01T03:03:24.078Z,0
2018-02-01T03:04:04.616Z,0
2018-02-01T03:04:45.123Z,0
2018-02-01T03:05:25.656Z,0
2018-02-01T03:06:06.191Z,0
2018-02-01T03:06:46.759Z,0
2018-02-01T03:07:27.292Z,0
2018-02-01T03:08:07.843Z,0
2018-02-01T03:08:48.399Z,0
2018-02-01T03:09:28.965Z,0
2018-02-01T03:10:09.484Z,0
2018-02-01T03:10:50.026Z,0
2018-02-01T03:11:30.590Z,0
2018-02-01T03:12:11.143Z,0
2018-02-01T03:12:51.704Z,0
2018-02-01T03:13:32.258Z,0
2018-02-01T03:14:12.787Z,0
2018-02-01T03:14:53.366Z,0
2018-02-01T03:15:33.934Z,0
2018-02-01T03:16:14.461Z,0
2018-02-01T03:16:54.985Z,0
2018-02-01T03:17:35.533Z,0
2018-02-01T03:18:16.108Z,0
2018-02-01T03:18:56.620Z,0
2018-02-01T03:19:37.181Z,0
2018-02-01T03:20:17.680Z,0
2018-02-01T03:20:58.204Z,0
2018-02-01T03:21:38.814Z,0
2018-02-01T03:22:19.403Z,0
2018-02-01T03:22:59.891Z,0
2018-02-01T03:23:40.406Z,0
2018-02-01T03:24:20.965Z,0
2018-02-01T03:25:01.528Z,0
2018-02-01T03:25:42.089Z,0
2018-02-01T03:26:22.646Z,0
2018-02-01T03:27:03.190Z,0
2018-02-01T03:27:43.756Z,0
2018-02-01T03:28:24.274Z,0
2018-02-01T03:29:04.805Z,0
2018-02-01T03:29:45.356Z,0
2018-02-01T03:30:25.862Z,0
2018-02-01T03:31:06.392Z,0
2018-02-01T03:31:46.939Z,0
2018-02-01T03:32:27.506Z,0
2018-02-01T03:33:08.020Z,0
2018-02-01T03:33:48.507Z,0
2018-02-01T03:34:29.067Z,0
2018-02-01T03:35:09.567Z,0
2018-02-01T03:35:50.096Z,0
2018-02-01T03:36:30.653Z,0
2018-02-01T03:37:11.216Z,0
2018-02-01T03:37:51.782Z,0
2018-02-01T03:38:32.293Z,0
2018-02-01T03:39:12.818Z,0
2018-02-01T03:39:53.340Z,0
2018-02-01T03:40:33.891Z,0
2018-02-01T03:41:14.431Z,0
2018-02-01T03:41:54.950Z,0
2018-02-01T03:42:35.541Z,0
2018-02-01T03:43:16.127Z,0
2018-02-01T03:43:56.672Z,0
2018-02-01T03:44:37.198Z,0
2018-02-01T03:45:17.747Z,0
2018-02-01T03:45:58.253Z,0
2018-02-01T03:46:38.784Z,0
2018-02-01T03:47:19.319Z,0
2018-02-01T03:47:59.871Z,0
2018-02-01T03:48:40.405Z,0
2018-02-01T03:49:20.977Z,0
2018-02-01T03:50:01.555Z,0
2018-02-01T03:50:42.026Z,0
2018-02-01T03:51:22.592Z,0
2018-02-01T03:52:03.153Z,0
2018-02-01T03:52:43.672Z,0
2018-02-01T03:53:24.235Z,0
2018-02-01T03:54:04.735Z,0
2018-02-01T03:54:45.289Z,0
2018-02-01T03:55:25.803Z,0
2018-02-01T03:56:06.344Z,0
2018-02-01T03:56:46.929Z,0
2018-02-01T03:57:27.442Z,0
2018-02-01T03:58:07.982Z,0
2018-02-01T03:58:48.529Z,0
2018-02-01T03:59:29.055Z,0
2018-02-01T04:00:09.610Z,0
2018-02-01T04:00:50.120Z,0
2018-02-01T04:01:30.664Z,0
2018-02-01T04:02:11.353Z,0
2018-02-01T04:02:52.070Z,0
2018-02-01T04:03:32.621Z,0
2018-02-01T04:04:13.213Z,0
2018-02-01T04:04:53.760Z,0
2018-02-01T04:05:34.304Z,0
2018-02-01T04:06:14.840Z,0
2018-02-01T04:06:55.349Z,0
2018-02-01T04:07:35.876Z,0
2018-02-01T04:08:16.441Z,0
2018-02-01T04:08:57.012Z,0
2018-02-01T04:09:37.535Z,0
2018-02-01T04:10:18.087Z,0
2018-02-01T04:10:58.635Z,0
2018-02-01T04:11:39.178Z,0
2018-02-01T04:12:19.744Z,0
2018-02-01T04:13:00.305Z,0
2018-02-01T04:13:40.851Z,0
2018-02-01T04:14:21.384Z,0
2018-02-01T04:15:01.979Z,0
2018-02-01T04:15:42.470Z,0
2018-02-01T04:16:22.983Z,0
2018-02-01T04:17:03.548Z,0
2018-02-01T04:17:44.110Z,0
2018-02-01T04:18:24.625Z,0
2018-02-01T04:19:05.501Z,0
2018-02-01T04:19:46.062Z,0
2018-02-01T04:20:26.730Z,0
2018-02-01T04:21:07.274Z,0
2018-02-01T04:21:47.820Z,0
2018-02-01T04:22:28.337Z,0
2018-02-01T04:23:08.855Z,0
2018-02-01T04:23:49.395Z,0
2018-02-01T04:24:29.869Z,0
2018-02-01T04:25:10.435Z,0
2018-02-01T04:25:51.448Z,0
2018-02-01T04:26:31.977Z,0
2018-02-01T04:27:12.896Z,0
2018-02-01T04:27:53.480Z,0
2018-02-01T04:28:34.026Z,0
2018-02-01T04:29:14.541Z,0
2018-02-01T04:29:55.109Z,0
2018-02-01T04:30:35.651Z,0
2018-02-01T04:31:16.260Z,0
2018-02-01T04:31:57.413Z,0
2018-02-01T04:32:37.940Z,0
2018-02-01T04:33:18.509Z,0
2018-02-01T04:33:59.049Z,0
2018-02-01T04:34:39.606Z,0
2018-02-01T04:35:20.127Z,0
2018-02-01T04:36:00.706Z,0
2018-02-01T04:36:42.464Z,0
2018-02-01T04:37:22.498Z,0
2018-02-01T04:38:03.774Z,0
2018-02-01T04:38:44.048Z,0
2018-02-01T04:39:24.594Z,0
2018-02-01T04:40:05.177Z,0
2018-02-01T04:40:45.672Z,0
2018-02-01T04:41:26.232Z,0
2018-02-01T04:42:06.748Z,0
2018-02-01T04:42:48.252Z,0
2018-02-01T04:43:28.858Z,0
2018-02-01T04:44:09.354Z,0
2018-02-01T04:44:49.909Z,0
2018-02-01T04:45:30.478Z,0
2018-02-01T04:46:11.684Z,0
2018-02-01T04:46:52.561Z,0
2018-02-01T04:47:33.178Z,0
2018-02-01T04:48:13.786Z,0
2018-02-01T04:48:54.330Z,0
2018-02-01T04:49:34.862Z,0
2018-02-01T04:50:15.465Z,0
2018-02-01T04:50:56.023Z,0
2018-02-01T04:51:36.558Z,0
2018-02-01T04:52:17.737Z,0
2018-02-01T04:52:58.296Z,0
2018-02-01T04:53:38.842Z,0
2018-02-01T04:54:19.417Z,0
2018-02-01T04:54:59.954Z,0
2018-02-01T04:55:40.515Z,0
2018-02-01T04:56:21.002Z,0
2018-02-01T04:57:02.141Z,0
2018-02-01T04:57:42.886Z,0
2018-02-01T04:58:23.426Z,0
2018-02-01T04:59:03.977Z,0
2018-02-01T04:59:44.519Z,0
2018-02-01T05:00:25.045Z,0
2018-02-01T05:01:05.579Z,0
2018-02-01T05:01:46.108Z,0
2018-02-01T05:02:27.436Z,0
2018-02-01T05:03:08.074Z,0
2018-02-01T05:03:48.690Z,0
2018-02-01T05:04:29.293Z,0
2018-02-01T05:05:09.835Z,0
2018-02-01T05:05:50.839Z,0
2018-02-01T05:06:33.673Z,0
2018-02-01T05:07:14.193Z,0
2018-02-01T05:07:54.759Z,0
2018-02-01T05:08:35.287Z,0
2018-02-01T05:09:15.838Z,0
2018-02-01T05:09:56.480Z,0
2018-02-01T05:10:37.148Z,0
2018-02-01T05:11:17.845Z,0
2018-02-01T05:11:58.342Z,0
2018-02-01T05:12:38.881Z,0
2018-02-01T05:13:19.480Z,0
2018-02-01T05:14:00.036Z,0
2018-02-01T05:14:40.615Z,0
2018-02-01T05:15:21.114Z,0
2018-02-01T05:16:01.702Z,0
2018-02-01T05:16:42.213Z,0
2018-02-01T05:17:22.745Z,0
2018-02-01T05:18:03.286Z,0
2018-02-01T05:18:43.799Z,0
2018-02-01T05:19:24.375Z,0
2018-02-01T05:20:04.873Z,0
2018-02-01T05:20:45.420Z,0
2018-02-01T05:21:25.975Z,0
2018-02-01T05:22:06.516Z,0
2018-02-01T05:22:47.066Z,0
2018-02-01T05:23:27.636Z,0
2018-02-01T05:24:08.178Z,0
2018-02-01T05:24:48.698Z,0
2018-02-01T05:25:29.238Z,0
2018-02-01T05:26:09.757Z,0
2018-02-01T05:26:50.357Z,0
2018-02-01T05:27:30.887Z,0
2018-02-01T05:28:11.503Z,0
2018-02-01T05:28:52.040Z,0
2018-02-01T05:29:32.600Z,0
2018-02-01T05:30:13.187Z,0
2018-02-01T05:30:53.619Z,0
2018-02-01T05:31:34.138Z,0
2018-02-01T05:32:14.667Z,0
2018-02-01T05:32:55.244Z,0
2018-02-01T05:33:35.761Z,0
2018-02-01T05:34:16.298Z,0
2018-02-01T05:34:56.861Z,0
2018-02-01T05:35:37.355Z,0
2018-02-01T05:36:17.913Z,0
2018-02-01T05:36:58.482Z,0
2018-02-01T05:37:39.000Z,0
2018-02-01T05:38:19.578Z,0
2018-02-01T05:39:00.123Z,0
2018-02-01T05:39:40.628Z,0
2018-02-01T05:40:21.143Z,0
2018-02-01T05:41:01.697Z,0
2018-02-01T05:41:42.208Z,0
2018-02-01T05:42:22.782Z,0
2018-02-01T05:43:03.289Z,0
2018-02-01T05:43:43.829Z,0
2018-02-01T05:44:24.391Z,0
2018-02-01T05:45:04.907Z,0
2018-02-01T05:45:45.422Z,0
2018-02-01T05:46:26.024Z,0
2018-02-01T05:47:06.534Z,0
2018-02-01T05:47:47.060Z,0
2018-02-01T05:48:27.592Z,0
2018-02-01T05:49:08.096Z,0
2018-02-01T05:49:48.670Z,0
2018-02-01T05:50:29.199Z,0
2018-02-01T05:51:09.726Z,0
2018-02-01T05:51:50.212Z,0
2018-02-01T05:52:30.796Z,0
2018-02-01T05:53:11.409Z,0
2018-02-01T05:53:51.928Z,0
2018-02-01T05:54:32.440Z,0
2018-02-01T05:55:13.015Z,0
2018-02-01T05:55:53.575Z,0
2018-02-01T05:56:34.161Z,0
2018-02-01T05:57:14.617Z,0
2018-02-01T05:57:55.159Z,0
2018-02-01T05:58:35.715Z,0
2018-02-01T05:59:16.246Z,0
2018-02-01T05:59:57.137Z,0
2018-02-01T06:00:37.796Z,0
2018-02-01T06:01:19.109Z,0
2018-02-01T06:01:59.594Z,0
2018-02-01T06:02:40.222Z,0
2018-02-01T06:03:20.943Z,0
2018-02-01T06:04:01.522Z,0
2018-02-01T06:04:42.048Z,0
2018-02-01T06:05:22.570Z,0
2018-02-01T06:06:03.157Z,0
2018-02-01T06:06:43.771Z,0
2018-02-01T06:07:24.314Z,0
2018-02-01T06:08:13.318Z,0
2018-02-01T06:08:53.829Z,0
2018-02-01T06:09:34.798Z,0
2018-02-01T06:10:15.320Z,0
2018-02-01T06:10:55.871Z,0
2018-02-01T06:11:36.394Z,0
2018-02-01T06:12:17.005Z,0
2018-02-01T06:13:00.620Z,0
2018-02-01T06:13:41.139Z,0
2018-02-01T06:14:21.709Z,0
2018-02-01T06:15:02.549Z,0
2018-02-01T06:15:43.082Z,0
2018-02-01T06:16:23.583Z,0
2018-02-01T06:17:04.138Z,0
2018-02-01T06:17:44.679Z,0
2018-02-01T06:18:25.204Z,0
2018-02-01T06:19:05.747Z,0
2018-02-01T06:19:46.644Z,0
2018-02-01T06:20:27.578Z,0
2018-02-01T06:21:08.158Z,0
2018-02-01T06:21:48.624Z,0
2018-02-01T06:22:29.182Z,0
2018-02-01T06:23:09.681Z,0
2018-02-01T06:23:50.228Z,0
2018-02-01T06:24:30.836Z,0
2018-02-01T06:25:11.466Z,0
2018-02-01T06:25:52.123Z,0
2018-02-01T06:26:34.588Z,0
2018-02-01T06:27:14.958Z,0
2018-02-01T06:27:55.498Z,0
2018-02-01T06:28:36.156Z,0
2018-02-01T06:29:16.612Z,0
2018-02-01T06:29:57.152Z,0
2018-02-01T06:30:37.762Z,0
2018-02-01T06:31:18.432Z,0
2018-02-01T06:31:58.956Z,0
2018-02-01T06:32:39.538Z,0
2018-02-01T06:33:20.595Z,0
2018-02-01T06:34:00.667Z,0
2018-02-01T06:34:41.190Z,0
2018-02-01T06:35:21.721Z,0
2018-02-01T06:36:02.345Z,0
2018-02-01T06:36:42.875Z,0
2018-02-01T06:37:23.524Z,0
2018-02-01T06:38:04.607Z,0
2018-02-01T06:38:44.805Z,0
2018-02-01T06:39:25.602Z,0
2018-02-01T06:40:06.279Z,0
2018-02-01T06:40:47.044Z,0
2018-02-01T06:43:25.117Z,0
2018-02-01T06:44:07.213Z,0
2018-02-01T06:44:47.786Z,0
2018-02-01T06:45:29.304Z,0
2018-02-01T06:46:09.888Z,0
2018-02-01T06:46:50.993Z,0
2018-02-01T06:47:31.030Z,0
2018-02-01T06:48:11.770Z,0
2018-02-01T06:48:52.577Z,0
2018-02-01T06:49:32.879Z,0
2018-02-01T06:50:13.411Z,0
2018-02-01T06:50:54.083Z,0
2018-02-01T06:51:34.491Z,0
2018-02-01T06:52:15.100Z,0
2018-02-01T06:52:55.629Z,0
2018-02-01T06:53:36.522Z,0
2018-02-01T06:54:17.047Z,0
2018-02-01T06:54:57.555Z,0
2018-02-01T06:55:38.222Z,0
2018-02-01T06:56:18.817Z,0
2018-02-01T06:56:59.320Z,0
2018-02-01T06:57:39.874Z,0
2018-02-01T06:58:20.528Z,0
2018-02-01T06:59:01.057Z,0
2018-02-01T06:59:41.620Z,0
2018-02-01T07:00:22.179Z,0
2018-02-01T07:01:02.747Z,0
2018-02-01T07:01:43.316Z,0
2018-02-01T07:02:23.859Z,0
2018-02-01T07:03:04.436Z,0
2018-02-01T07:03:44.996Z,0
2018-02-01T07:04:25.566Z,0
2018-02-01T07:05:06.162Z,0
2018-02-01T07:05:46.744Z,0
2018-02-01T07:06:27.297Z,0
2018-02-01T07:07:07.853Z,0
2018-02-01T07:07:48.382Z,0
2018-02-01T07:08:28.929Z,0
2018-02-01T07:09:09.459Z,0
2018-02-01T07:09:49.983Z,0
2018-02-01T07:10:30.539Z,0
2018-02-01T07:11:11.032Z,0
2018-02-01T07:11:51.594Z,0
2018-02-01T07:12:32.182Z,0
2018-02-01T07:13:14.384Z,0
2018-02-01T07:13:54.917Z,0
2018-02-01T07:14:35.435Z,0
2018-02-01T07:15:15.963Z,0
2018-02-01T07:15:56.554Z,0
2018-02-01T07:16:37.091Z,0
2018-02-01T07:17:17.632Z,0
2018-02-01T07:17:58.169Z,0
2018-02-01T07:18:38.768Z,5
2018-02-01T07:19:19.291Z,5
2018-02-01T07:19:59.887Z,5
2018-02-01T07:20:40.380Z,5
2018-02-01T07:21:20.969Z,5
2018-02-01T07:22:01.478Z,5
2018-02-01T07:22:42.024Z,5
2018-02-01T07:23:22.517Z,5
2018-02-01T07:24:03.059Z,5
2018-02-01T07:24:43.594Z,5
2018-02-01T07:25:24.163Z,5
2018-02-01T07:26:04.672Z,5
2018-02-01T07:26:45.199Z,5
2018-02-01T07:27:25.830Z,5
2018-02-01T07:28:06.394Z,5
2018-02-01T07:28:46.956Z,5
2018-02-01T07:29:27.476Z,5
2018-02-01T07:30:08.028Z,10
2018-02-01T07:30:48.602Z,10
2018-02-01T07:31:29.160Z,10
2018-02-01T07:32:09.733Z,5
2018-02-01T07:32:50.246Z,5
2018-02-01T07:33:30.836Z,5
2018-02-01T07:34:11.370Z,5
2018-02-01T07:34:51.938Z,5
2018-02-01T07:35:32.551Z,10
2018-02-01T07:36:13.050Z,10
2018-02-01T07:36:53.595Z,10
2018-02-01T07:37:34.186Z,10
2018-02-01T07:38:14.737Z,10
2018-02-01T07:38:55.381Z,5
2018-02-01T07:39:35.922Z,5
2018-02-01T07:40:16.454Z,5
2018-02-01T07:40:57.024Z,5
2018-02-01T07:41:37.526Z,5
2018-02-01T07:42:18.029Z,5
2018-02-01T07:42:58.587Z,5
2018-02-01T07:43:39.131Z,5
2018-02-01T07:44:19.907Z,5
2018-02-01T07:45:00.398Z,5
2018-02-01T07:45:40.953Z,5
2018-02-01T07:46:21.504Z,5
2018-02-01T07:47:02.066Z,5
2018-02-01T07:47:42.571Z,5
2018-02-01T07:48:23.159Z,5
2018-02-01T07:49:03.656Z,5
2018-02-01T07:49:44.221Z,5
2018-02-01T07:50:24.752Z,5
2018-02-01T07:51:05.268Z,5
2018-02-01T07:51:45.838Z,5
2018-02-01T07:52:26.362Z,5
2018-02-01T07:53:06.875Z,5
2018-02-01T07:53:47.432Z,5
2018-02-01T07:54:27.967Z,5
2018-02-01T07:55:08.524Z,5
2018-02-01T07:55:49.060Z,5
2018-02-01T07:56:29.604Z,5
2018-02-01T07:57:10.104Z,10
2018-02-01T07:57:50.623Z,10
2018-02-01T07:58:31.141Z,10
2018-02-01T07:59:11.730Z,10
2018-02-01T07:59:52.202Z,10
2018-02-01T08:00:32.703Z,10
2018-02-01T08:01:13.248Z,10
2018-02-01T08:01:53.827Z,10
2018-02-01T08:02:34.418Z,10
2018-02-01T08:03:14.940Z,10
2018-02-01T08:03:55.481Z,10
2018-02-01T08:04:35.986Z,10
2018-02-01T08:05:16.502Z,10
2018-02-01T08:05:57.064Z,10
2018-02-01T08:06:37.608Z,10
2018-02-01T08:07:18.141Z,10
2018-02-01T08:07:58.727Z,10
2018-02-01T08:08:39.251Z,10
2018-02-01T08:09:19.819Z,10
2018-02-01T08:10:00.330Z,10
2018-02-01T08:10:40.868Z,10
2018-02-01T08:11:21.439Z,10
2018-02-01T08:12:02.070Z,10
2018-02-01T08:12:42.534Z,10
2018-02-01T08:13:23.066Z,10
2018-02-01T08:14:03.629Z,10
2018-02-01T08:14:44.151Z,10
2018-02-01T08:15:24.708Z,10
2018-02-01T08:16:05.258Z,10
2018-02-01T08:16:45.769Z,10
2018-02-01T08:17:26.346Z,10
2018-02-01T08:18:06.877Z,15
2018-02-01T08:18:47.445Z,15
2018-02-01T08:19:27.948Z,15
2018-02-01T08:20:08.522Z,10
2018-02-01T08:20:49.050Z,10
2018-02-01T08:21:29.623Z,5
2018-02-01T08:22:10.162Z,5
2018-02-01T08:22:50.695Z,5
2018-02-01T08:23:31.222Z,5
2018-02-01T08:24:11.801Z,10
2018-02-01T08:24:52.299Z,10
2018-02-01T08:25:32.866Z,5
2018-02-01T08:26:13.363Z,5
2018-02-01T08:26:53.886Z,5
2018-02-01T08:27:34.532Z,5
2018-02-01T08:28:15.085Z,5
2018-02-01T08:28:55.618Z,5
2018-02-01T08:29:36.200Z,5
2018-02-01T08:30:16.707Z,5
2018-02-01T08:30:57.260Z,5
2018-02-01T08:31:37.840Z,5
2018-02-01T08:32:18.366Z,5
2018-02-01T08:32:58.842Z,5
2018-02-01T08:33:39.423Z,5
2018-02-01T08:34:19.932Z,5
2018-02-01T08:35:00.535Z,10
2018-02-01T08:35:41.043Z,10
2018-02-01T08:36:21.573Z,10
2018-02-01T08:37:02.130Z,10
2018-02-01T08:37:42.711Z,10
2018-02-01T08:38:23.280Z,10
2018-02-01T08:39:03.824Z,10
2018-02-01T08:39:44.374Z,10
2018-02-01T08:40:24.926Z,15
2018-02-01T08:41:05.461Z,15
2018-02-01T08:41:45.946Z,20
2018-02-01T08:42:26.567Z,20
2018-02-01T08:43:07.075Z,25
2018-02-01T08:43:47.597Z,25
2018-02-01T08:44:28.130Z,25
2018-02-01T08:45:08.679Z,25
2018-02-01T08:45:49.241Z,25
2018-02-01T08:46:29.754Z,25
2018-02-01T08:47:10.234Z,25
2018-02-01T08:47:50.822Z,25
2018-02-01T08:48:31.368Z,30
2018-02-01T08:49:12.530Z,35
2018-02-01T08:49:52.436Z,35
2018-02-01T08:50:33.003Z,35
2018-02-01T08:51:13.532Z,30
2018-02-01T08:51:54.020Z,30
2018-02-01T08:52:34.603Z,25
2018-02-01T08:53:15.119Z,25
2018-02-01T08:53:55.693Z,25
2018-02-01T08:54:36.164Z,30
2018-02-01T08:55:16.707Z,40
2018-02-01T08:55:57.234Z,45
2018-02-01T08:56:37.721Z,50
2018-02-01T08:57:18.319Z,55
2018-02-01T08:57:58.813Z,55
2018-02-01T08:58:39.414Z,60
2018-02-01T08:59:19.923Z,65
2018-02-01T09:00:00.509Z,65
2018-02-01T09:00:41.041Z,60
2018-02-01T09:01:21.566Z,55
2018-02-01T09:02:02.103Z,50
2018-02-01T09:02:42.622Z,50
2018-02-01T09:03:23.173Z,50
2018-02-01T09:04:03.788Z,50
2018-02-01T09:04:44.277Z,55
2018-02-01T09:05:24.960Z,55
2018-02-01T09:06:05.494Z,60
2018-02-01T09:06:45.991Z,65
2018-02-01T09:07:26.524Z,65
2018-02-01T09:08:07.078Z,60
2018-02-01T09:08:47.585Z,60
2018-02-01T09:09:28.099Z,55
2018-02-01T09:10:08.637Z,50
2018-02-01T09:10:49.160Z,45
2018-02-01T09:11:32.741Z,45
2018-02-01T09:12:13.290Z,45
2018-02-01T09:12:53.867Z,45
2018-02-01T09:13:34.365Z,50
2018-02-01T09:14:14.906Z,50
2018-02-01T09:14:55.444Z,45
2018-02-01T09:15:35.935Z,50
2018-02-01T09:16:16.485Z,50
2018-02-01T09:16:57.014Z,45
2018-02-01T09:17:37.568Z,50
2018-02-01T09:18:18.108Z,50
2018-02-01T09:18:58.713Z,50
2018-02-01T09:19:39.270Z,55
2018-02-01T09:20:19.794Z,60
2018-02-01T09:21:00.347Z,60
2018-02-01T09:21:40.889Z,60
2018-02-01T09:22:21.392Z,65
2018-02-01T09:23:01.936Z,70
2018-02-01T09:23:42.436Z,65
2018-02-01T09:24:23.002Z,65
2018-02-01T09:25:03.520Z,70
2018-02-01T09:25:44.047Z,70
2018-02-01T09:26:24.647Z,70
2018-02-01T09:27:05.161Z,75
2018-02-01T09:27:45.730Z,80
2018-02-01T09:28:26.242Z,90
2018-02-01T09:29:06.784Z,90
2018-02-01T09:29:47.361Z,95
2018-02-01T09:30:27.890Z,95
2018-02-01T09:31:08.413Z,85
2018-02-01T09:31:48.944Z,85
2018-02-01T09:32:29.512Z,90
2018-02-01T09:33:10.053Z,85
2018-02-01T09:33:50.558Z,75
2018-02-01T09:34:31.099Z,75
2018-02-01T09:35:11.628Z,70
2018-02-01T09:35:52.179Z,65
2018-02-01T09:36:32.661Z,60
2018-02-01T09:37:13.223Z,60
2018-02-01T09:37:53.729Z,55
2018-02-01T09:38:34.309Z,55
2018-02-01T09:39:14.879Z,55
2018-02-01T09:39:55.446Z,55
2018-02-01T09:40:35.961Z,55
2018-02-01T09:41:16.506Z,60
2018-02-01T09:41:57.186Z,60
2018-02-01T09:42:37.660Z,60
2018-02-01T09:43:18.261Z,55
2018-02-01T09:43:58.780Z,60
2018-02-01T09:44:39.355Z,60
2018-02-01T09:45:19.841Z,60
2018-02-01T09:46:00.376Z,60
2018-02-01T09:46:40.959Z,60
2018-02-01T09:47:21.450Z,55
2018-02-01T09:48:02.022Z,55
2018-02-01T09:48:42.525Z,55
2018-02-01T09:49:23.076Z,55
2018-02-01T09:50:03.613Z,55
2018-02-01T09:50:44.147Z,55
2018-02-01T09:51:24.631Z,60
2018-02-01T09:52:05.173Z,55
2018-02-01T09:52:45.817Z,60
2018-02-01T09:53:26.388Z,60
2018-02-01T09:54:06.953Z,65
2018-02-01T09:54:47.485Z,60
2018-02-01T09:55:28.068Z,60
2018-02-01T09:56:08.571Z,65
2018-02-01T09:56:49.129Z,65
2018-02-01T09:57:29.668Z,65
2018-02-01T09:58:10.196Z,65